BIBI weather

Baeir Airport
Baeir, Westfjords, Iceland

Public forecast

Using degrees Celsius for public forecast. Weather courtesy of forecast.io.

Closest aviation weather report (METAR) to Baeir Airport

Closest report is Ísafjörður Airport, 14.1 nm (26.0 km) W. Retrieved 2020/07/15 08:00 UTC (5 minutes ago):

BIIS 150800Z 05003KT 9999 FEW003 BKN005 BKN010 OVC020 10/08 Q1006

Closest aviation forecast (TAF) to Baeir Airport

Closest forecast is Akureyri Airport, 113.4 nm (209.9 km) ESE. Retrieved 2020/07/15 09:56 UTC (0 seconds ago):

TAF BIAR 150751Z 1509/1609 34007KT 9999 -RA SCT010 BKN015 OVC025 TX12/1515Z TN08/1606Z TEMPO 1509/1512 3000 -DZ BR OVC004 TEMPO 1519/1609 RA OVC010